Time;durP1;ratioP1;P1;durP2;ratioP2;P2;SDS_P1;SDS_P2;PMS_P1;PMS_P2;Temp;Humidity;BMP_temperature;BMP_pressure;BME280_temperature;BME280_humidity;BME280_pressure;Samples;Min_cycle;Max_cycle;Signal;HPM_P1;HPM_P2
2023/03/14 00:00:13;;;;;;;;;2.00;2.00;;;;;13.96;64.57;98860.00;2096603;28;46851;-68
2023/03/14 00:01:17;;;;;;;;;0.50;0.00;;;;;13.96;64.63;98854.69;2105110;28;46684;-68
2023/03/14 00:02:17;;;;;;;;;2.25;1.75;;;;;13.96;64.63;98855.53;2105646;28;46544;-68
2023/03/14 00:03:18;;;;;;;;;1.67;1.33;;;;;13.98;64.67;98845.66;2106013;28;46224;-69
2023/03/14 00:04:18;;;;;;;;;0.33;0.33;;;;;14.00;64.52;98848.22;2105362;28;46923;-68
2023/03/14 00:05:19;;;;;;;;;2.00;1.33;;;;;14.00;64.52;98845.53;2098444;28;46505;-68
2023/03/14 00:06:20;;;;;;;;;1.33;1.33;;;;;14.02;64.82;98847.16;2096965;28;47414;-68
2023/03/14 00:07:20;;;;;;;;;2.00;2.00;;;;;14.01;64.72;98845.44;2097509;28;46552;-68
2023/03/14 00:08:21;;;;;;;;;1.33;1.33;;;;;14.02;64.76;98844.47;2101633;27;47163;-68
2023/03/14 00:09:21;;;;;;;;;3.33;1.00;;;;;14.01;65.02;98840.09;2113449;27;45640;-67
2023/03/14 00:10:22;;;;;;;;;3.33;1.33;;;;;14.01;64.59;98842.78;2105455;28;46865;-67
2023/03/14 00:11:22;;;;;;;;;2.00;1.00;;;;;13.99;65.09;98842.03;2105430;28;45646;-67
2023/03/14 00:12:23;;;;;;;;;1.33;1.33;;;;;13.99;64.89;98846.50;2105566;28;46844;-67
2023/03/14 00:13:24;;;;;;;;;1.00;1.00;;;;;13.98;64.75;98837.66;2098494;28;48125;-66
2023/03/14 00:14:24;;;;;;;;;0.75;0.75;;;;;13.97;64.89;98843.06;2098650;28;46866;-69
2023/03/14 00:15:25;;;;;;;;;0.33;0.00;;;;;13.97;64.67;98845.72;2105309;28;46340;-67
2023/03/14 00:16:26;;;;;;;;;1.67;1.67;;;;;13.94;65.11;98829.94;2105150;28;45714;-68
2023/03/14 00:17:27;;;;;;;;;1.75;1.75;;;;;13.92;64.77;98848.69;2105216;28;45429;-68
2023/03/14 00:18:27;;;;;;;;;2.50;1.50;;;;;13.91;64.94;98844.31;2105091;28;46787;-68
2023/03/14 00:19:28;;;;;;;;;1.00;1.00;;;;;13.90;64.97;98836.44;2096498;28;46220;-68
2023/03/14 00:20:28;;;;;;;;;1.33;1.33;;;;;13.89;64.81;98832.91;2096292;28;46702;-68
2023/03/14 00:21:28;;;;;;;;;0.33;0.33;;;;;13.90;65.21;98833.75;2105003;28;46175;-68
2023/03/14 00:22:29;;;;;;;;;1.33;0.33;;;;;13.89;65.18;98832.91;2104767;28;45829;-68
2023/03/14 00:23:31;;;;;;;;;3.00;3.00;;;;;13.90;65.06;98839.09;2105058;28;46082;-68
2023/03/14 00:24:31;;;;;;;;;0.25;0.25;;;;;13.90;64.94;98842.63;2105118;28;46043;-68
2023/03/14 00:25:31;;;;;;;;;0.67;0.33;;;;;13.89;65.29;98830.25;2105397;28;46560;-68
2023/03/14 00:26:32;;;;;;;;;1.67;0.67;;;;;13.88;65.34;98835.69;2104148;28;46099;-69
2023/03/14 00:27:32;;;;;;;;;3.67;1.00;;;;;13.88;65.30;98828.53;2105113;28;46979;-67
2023/03/14 00:28:33;;;;;;;;;2.00;1.00;;;;;13.88;65.53;98817.00;2105552;28;45576;-68
2023/03/14 00:29:33;;;;;;;;;0.00;0.00;;;;;13.86;65.31;98818.94;2105573;28;48050;-68
2023/03/14 00:30:33;;;;;;;;;0.00;0.00;;;;;13.84;65.33;98833.19;2102213;28;46064;-68
2023/03/14 00:31:35;;;;;;;;;2.00;1.33;;;;;13.83;65.35;98828.81;2105151;28;46864;-68
2023/03/14 00:32:36;;;;;;;;;0.75;0.75;;;;;13.81;65.24;98817.41;2105752;28;46947;-69
2023/03/14 00:33:37;;;;;;;;;0.00;0.00;;;;;13.79;65.86;98808.66;2105365;28;46670;-68
2023/03/14 00:34:37;;;;;;;;;0.67;0.67;;;;;13.80;65.77;98814.84;2103676;28;46465;-69
2023/03/14 00:35:37;;;;;;;;;0.33;0.00;;;;;13.80;65.58;98809.50;2104108;28;46792;-68
2023/03/14 00:36:38;;;;;;;;;0.00;0.00;;;;;13.80;65.82;98807.69;2104887;27;46561;-68
2023/03/14 00:37:38;;;;;;;;;2.33;0.67;;;;;13.80;65.99;98813.03;2098038;28;46738;-68
2023/03/14 00:38:40;;;;;;;;;2.33;1.00;;;;;13.80;65.81;98813.03;2096335;28;46903;-67
2023/03/14 00:39:40;;;;;;;;;0.00;0.00;;;;;13.79;66.02;98805.13;2096762;28;46419;-68
2023/03/14 00:40:40;;;;;;;;;0.33;0.33;;;;;13.79;66.01;98813.13;2094156;28;47329;-68
2023/03/14 00:41:41;;;;;;;;;0.67;0.00;;;;;13.78;65.93;98798.09;2096383;28;45851;-68
2023/03/14 00:42:41;;;;;;;;;1.00;1.00;;;;;13.78;66.07;98792.75;2104499;28;46975;-66
2023/03/14 00:43:42;;;;;;;;;0.67;0.00;;;;;13.79;66.15;98807.78;2105018;28;46737;-67
2023/03/14 00:44:42;;;;;;;;;1.25;0.00;;;;;13.78;65.85;98808.75;2104708;28;46359;-67
2023/03/14 00:45:43;;;;;;;;;1.67;1.67;;;;;13.77;65.96;98813.22;2105552;28;45220;-67
2023/03/14 00:46:43;;;;;;;;;0.33;0.33;;;;;13.77;65.79;98805.22;2105250;28;45683;-66
2023/03/14 00:47:45;;;;;;;;;0.00;0.00;;;;;13.77;66.06;98797.22;2098358;28;46695;-68
2023/03/14 00:48:46;;;;;;;;;0.25;0.25;;;;;13.75;66.36;98804.47;2091076;28;46659;-69
2023/03/14 00:49:46;;;;;;;;;0.00;0.00;;;;;13.75;66.40;98798.28;2095822;28;46120;-67
2023/03/14 00:50:47;;;;;;;;;0.33;0.33;;;;;13.75;66.46;98799.16;2105357;28;46788;-68
2023/03/14 00:51:47;;;;;;;;;0.00;0.00;;;;;13.76;66.17;98808.00;2101737;28;46951;-68
2023/03/14 00:52:48;;;;;;;;;1.33;0.00;;;;;13.75;66.18;98799.16;2096843;28;46519;-68
2023/03/14 00:53:49;;;;;;;;;0.00;0.00;;;;;13.76;66.56;98816.84;2106635;27;45446;-68
2023/03/14 00:54:49;;;;;;;;;0.67;0.67;;;;;13.75;66.34;98807.16;2112654;27;45186;-68
2023/03/14 00:55:50;;;;;;;;;0.33;0.33;;;;;13.76;66.29;98800.00;2096029;28;46303;-67
2023/03/14 00:56:50;;;;;;;;;1.00;0.33;;;;;13.74;66.60;98796.59;2095856;28;46329;-68
2023/03/14 00:57:50;;;;;;;;;1.00;0.00;;;;;13.73;66.42;98798.41;2105363;27;46884;-67
2023/03/14 00:58:55;;;;;;;;;1.33;0.33;;;;;13.73;66.44;98808.22;2105192;28;46408;-69
2023/03/14 00:59:55;;;;;;;;;0.75;0.75;;;;;13.72;66.52;98785.13;2104527;28;46083;-67
2023/03/14 01:00:56;;;;;;;;;1.67;0.67;;;;;13.72;66.61;98801.13;2104308;28;47338;-67
2023/03/14 01:01:56;;;;;;;;;1.00;0.00;;;;;13.71;66.56;98789.63;2104759;28;46567;-69
2023/03/14 01:02:56;;;;;;;;;2.33;0.67;;;;;13.71;66.93;98789.63;2105131;28;46347;-68
2023/03/14 01:03:57;;;;;;;;;0.00;0.00;;;;;13.71;66.74;98791.44;2104565;28;46443;-68
2023/03/14 01:04:57;;;;;;;;;0.67;0.67;;;;;13.71;66.79;98791.44;2096086;28;46887;-67
2023/03/14 01:06:10;;;;;;;;;0.00;0.00;;;;;13.70;67.08;98801.25;2095953;28;45991;-68
2023/03/14 01:07:10;;;;;;;;;1.25;1.00;;;;;13.68;67.10;98791.63;2105106;28;46677;-68
2023/03/14 01:08:11;;;;;;;;;2.00;1.00;;;;;13.67;67.02;98793.44;2104884;28;45552;-68
2023/03/14 01:09:12;;;;;;;;;0.00;0.00;;;;;13.67;67.00;98798.78;2105166;28;45869;-67
2023/03/14 01:10:12;;;;;;;;;0.00;0.00;;;;;13.67;66.63;98801.44;2112259;27;46413;-67
2023/03/14 01:11:21;;;;;;;;;0.67;0.67;;;;;13.65;67.12;98790.03;2113988;27;47078;-69
2023/03/14 01:12:21;;;;;;;;;1.75;1.75;;;;;13.64;66.96;98787.47;2105288;28;45245;-68
2023/03/14 01:13:21;;;;;;;;;4.67;2.00;;;;;13.62;67.32;98798.22;2098188;28;45124;-67
2023/03/14 01:14:22;;;;;;;;;0.67;0.67;;;;;13.60;66.90;98786.81;2088476;28;46415;-67
2023/03/14 01:15:22;;;;;;;;;1.67;1.67;;;;;13.60;67.38;98792.16;2091996;28;46461;-67
2023/03/14 01:16:24;;;;;;;;;0.00;0.00;;;;;13.60;67.53;98783.31;2111478;27;46797;-67
2023/03/14 01:17:25;;;;;;;;;1.00;1.00;;;;;13.60;67.29;98800.16;2114025;27;46419;-68
2023/03/14 01:18:25;;;;;;;;;0.00;0.00;;;;;13.60;67.29;98785.97;2113201;27;46637;-68
2023/03/14 01:19:27;;;;;;;;;1.67;0.00;;;;;13.60;67.16;98783.31;2113741;27;45626;-68
2023/03/14 01:20:28;;;;;;;;;0.75;0.75;;;;;13.60;67.57;98791.31;2112367;27;46993;-67
2023/03/14 01:21:32;;;;;;;;;1.67;0.33;;;;;13.60;67.12;98799.28;2113325;27;46645;-67
2023/03/14 01:22:32;;;;;;;;;2.25;1.50;;;;;13.58;67.56;98809.16;2113426;27;46818;-67
2023/03/14 01:23:32;;;;;;;;;1.33;1.33;;;;;13.56;67.37;98798.63;2111031;27;46685;-68
2023/03/14 01:24:32;;;;;;;;;0.00;0.00;;;;;13.54;67.15;98796.06;2111768;27;46872;-68
2023/03/14 01:25:33;;;;;;;;;1.33;1.33;;;;;13.53;67.20;98780.16;2113540;27;46981;-68
2023/03/14 01:26:35;;;;;;;;;2.00;1.00;;;;;13.49;67.50;98792.84;2112252;27;45435;-68
2023/03/14 01:27:35;;;;;;;;;0.25;0.00;;;;;13.49;67.44;98794.66;2113516;27;46071;-67
2023/03/14 01:28:36;;;;;;;;;3.33;0.00;;;;;13.49;67.61;98794.66;2113097;27;46343;-68
2023/03/14 01:29:36;;;;;;;;;2.33;1.00;;;;;13.49;67.68;98786.66;2112138;27;46620;-67
2023/03/14 01:30:36;;;;;;;;;1.00;1.00;;;;;13.47;67.42;98784.09;2104095;27;46945;-67
2023/03/14 01:31:37;;;;;;;;;2.00;1.00;;;;;13.46;67.79;98793.00;2109749;27;45909;-67
2023/03/14 01:32:38;;;;;;;;;2.00;2.00;;;;;13.49;67.60;98779.50;2105080;27;46319;-68
2023/03/14 01:33:39;;;;;;;;;0.00;0.00;;;;;13.49;67.51;98800.84;2098010;28;47210;-69
2023/03/14 01:34:39;;;;;;;;;1.00;1.00;;;;;13.49;67.24;98782.19;2107431;27;46438;-70
2023/03/14 01:35:39;;;;;;;;;0.33;0.33;;;;;13.49;67.49;98779.50;2108534;27;46687;-66
2023/03/14 01:36:40;;;;;;;;;1.67;1.67;;;;;13.49;67.63;98776.84;2087021;28;45897;-68
2023/03/14 01:37:40;;;;;;;;;1.33;0.67;;;;;13.50;67.69;98791.03;2089225;28;46711;-66
2023/03/14 01:38:41;;;;;;;;;3.00;2.00;;;;;13.50;67.74;98794.53;2113594;27;45888;-67
2023/03/14 01:39:41;;;;;;;;;1.67;1.00;;;;;13.49;67.69;98779.50;2112828;27;45133;-67
2023/03/14 01:40:44;;;;;;;;;1.00;1.00;;;;;13.49;68.20;98770.66;2098049;28;45948;-68
2023/03/14 01:41:44;;;;;;;;;0.50;0.00;;;;;13.49;67.85;98778.66;2104555;27;46673;-67
2023/03/14 01:42:53;;;;;;;;;1.00;1.00;;;;;13.50;67.49;98791.03;2102457;28;46120;-66
2023/03/14 01:43:54;;;;;;;;;0.75;0.75;;;;;13.49;67.80;98779.50;2096403;28;46327;-67
2023/03/14 01:45:00;;;;;;;;;0.00;0.00;;;;;13.48;67.69;98783.13;2104859;28;45557;-66
2023/03/14 01:46:06;;;;;;;;;2.00;1.00;;;;;13.48;67.95;98769.81;2109783;27;47098;-67
2023/03/14 01:47:06;;;;;;;;;1.75;0.25;;;;;13.47;68.00;98784.09;2107939;27;46347;-68
2023/03/14 01:48:07;;;;;;;;;1.00;1.00;;;;;13.46;67.91;98786.81;2105269;27;46702;-67
2023/03/14 01:49:10;;;;;;;;;1.33;1.33;;;;;13.47;67.78;98783.25;2108761;27;45449;-67
2023/03/14 01:50:12;;;;;;;;;1.00;1.00;;;;;13.48;68.15;98792.94;2112285;27;46919;-67
2023/03/14 01:51:17;;;;;;;;;0.50;0.00;;;;;13.48;68.21;98795.59;2113842;27;46247;-67
2023/03/14 01:52:25;;;;;;;;;1.00;0.75;;;;;13.48;68.11;98785.81;2111866;27;46693;-67
2023/03/14 01:53:25;;;;;;;;;2.00;0.25;;;;;13.48;67.76;98785.81;2108828;27;46564;-68
2023/03/14 01:54:40;;;;;;;;;1.00;1.00;;;;;13.47;68.41;98799.22;2113595;27;46720;-66
2023/03/14 01:55:40;;;;;;;;;0.00;0.00;;;;;13.47;68.56;98801.91;2107830;27;47424;-68
2023/03/14 01:56:46;;;;;;;;;0.33;0.33;;;;;13.47;68.64;98801.91;2108861;27;46795;-67
2023/03/14 01:58:01;;;;;;;;;0.00;0.00;;;;;13.48;68.46;98795.59;2112540;27;46883;-68
2023/03/14 01:59:06;;;;;;;;;0.50;0.50;;;;;13.49;68.56;98794.66;2111494;27;45170;-67
2023/03/14 02:00:13;;;;;;;;;0.50;0.00;;;;;13.48;68.57;98787.63;2108258;27;46639;-67
2023/03/14 02:01:18;;;;;;;;;0.00;0.00;;;;;13.49;68.42;98806.16;2110656;27;47195;-69
2023/03/14 02:02:20;;;;;;;;;0.00;0.00;;;;;13.48;68.54;98796.47;2102715;28;46697;-67
2023/03/14 02:03:23;;;;;;;;;0.00;0.00;;;;;13.48;68.83;98806.25;2100000;27;46862;-68
2023/03/14 02:04:28;;;;;;;;;1.50;1.00;;;;;13.47;68.40;98805.41;2111277;27;47125;-68
2023/03/14 02:05:32;;;;;;;;;1.25;1.00;;;;;13.47;68.62;98800.09;2111391;27;47160;-68
2023/03/14 02:06:47;;;;;;;;;0.00;0.00;;;;;13.48;68.54;98795.59;2107844;27;45181;-68
2023/03/14 02:07:51;;;;;;;;;0.00;0.00;;;;;13.49;68.80;98806.16;2106858;27;46682;-67
2023/03/14 02:08:52;;;;;;;;;1.00;0.00;;;;;13.49;68.48;98806.16;2112675;27;45248;-67
2023/03/14 02:09:54;;;;;;;;;0.00;0.00;;;;;13.50;68.90;98815.00;2109113;27;46527;-68
2023/03/14 02:10:54;;;;;;;;;3.75;0.50;;;;;13.51;68.54;98800.72;2110684;27;45864;-67
2023/03/14 02:11:54;;;;;;;;;3.00;0.00;;;;;13.50;68.80;98799.03;2099762;28;45047;-67
2023/03/14 02:12:59;;;;;;;;;1.33;0.00;;;;;13.48;68.12;98799.13;2095287;28;46964;-66
2023/03/14 02:14:01;;;;;;;;;0.25;0.25;;;;;13.48;68.45;98799.13;2108208;27;45984;-68
2023/03/14 02:15:01;;;;;;;;;2.00;0.00;;;;;13.47;68.65;98783.25;2104445;27;46091;-67
2023/03/14 02:16:02;;;;;;;;;1.33;0.00;;;;;13.46;69.23;98794.81;2104692;28;45928;-67
2023/03/14 02:17:07;;;;;;;;;1.00;0.00;;;;;13.46;69.17;98797.50;2105419;27;46499;-67
2023/03/14 02:18:08;;;;;;;;;1.00;1.00;;;;;13.46;69.00;98797.50;2104764;28;46457;-67
2023/03/14 02:19:12;;;;;;;;;0.00;0.00;;;;;13.44;68.75;98800.25;2110116;27;45311;-68
2023/03/14 02:20:25;;;;;;;;;1.50;0.50;;;;;13.45;68.79;98804.63;2108291;27;46495;-67
2023/03/14 02:21:42;;;;;;;;;0.25;0.00;;;;;13.46;69.21;98797.50;2104823;27;46306;-70
2023/03/14 02:22:45;;;;;;;;;0.00;0.00;;;;;13.46;69.19;98801.00;2107222;27;46146;-66
2023/03/14 02:24:25;;;;;;;;;0.00;0.00;;;;;13.48;68.89;98804.47;2100187;28;46692;-67
2023/03/14 02:25:56;;;;;;;;;0.75;0.75;;;;;13.47;69.23;98794.75;2088186;28;46374;-67
2023/03/14 02:27:08;;;;;;;;;0.00;0.00;;;;;13.48;69.08;98798.28;2088107;28;46176;-68
2023/03/14 02:28:09;;;;;;;;;2.00;0.00;;;;;13.48;69.10;98792.94;2082024;28;46979;-67
2023/03/14 02:29:10;;;;;;;;;0.00;0.00;;;;;13.48;69.18;98798.28;2088047;28;46818;-67
2023/03/14 02:30:13;;;;;;;;;2.33;0.00;;;;;13.49;69.29;98797.31;2088833;28;46728;-68
2023/03/14 02:31:14;;;;;;;;;0.75;0.00;;;;;13.47;69.47;98797.41;2086640;28;46289;-67
2023/03/14 02:32:17;;;;;;;;;0.00;0.00;;;;;13.46;69.49;98794.81;2089989;28;46050;-68
2023/03/14 02:33:20;;;;;;;;;1.00;0.50;;;;;13.45;69.56;98793.13;2088899;28;46519;-67
2023/03/14 02:34:20;;;;;;;;;0.50;0.00;;;;;13.45;69.69;98782.47;2078860;28;45047;-67
2023/03/14 02:35:25;;;;;;;;;0.00;0.00;;;;;13.46;70.03;98786.81;2062134;28;46609;-68
2023/03/14 02:36:27;;;;;;;;;0.00;0.00;;;;;13.44;69.59;98773.59;2072522;28;46343;-67
2023/03/14 02:37:36;;;;;;;;;0.00;0.00;;;;;13.45;69.63;98777.97;2070170;28;46905;-67
2023/03/14 02:38:48;;;;;;;;;0.00;0.00;;;;;13.45;69.77;98796.63;2071123;28;46991;-67
2023/03/14 02:39:51;;;;;;;;;0.00;0.00;;;;;13.45;69.91;98798.44;2071133;28;46077;-68
2023/03/14 02:40:51;;;;;;;;;0.00;0.00;;;;;13.44;69.46;98789.59;2062223;28;46390;-68
2023/03/14 02:41:52;;;;;;;;;0.00;0.00;;;;;13.44;69.73;98797.59;2070018;28;46495;-68
2023/03/14 02:42:52;;;;;;;;;0.00;0.00;;;;;13.46;69.63;98789.50;2070623;28;46140;-69
2023/03/14 02:43:52;;;;;;;;;0.00;0.00;;;;;13.45;69.56;98795.78;2078744;28;46609;-68
2023/03/14 02:44:59;;;;;;;;;0.00;0.00;;;;;13.46;69.72;98781.50;2074597;28;45604;-68
2023/03/14 02:46:01;;;;;;;;;0.00;0.00;;;;;13.46;69.76;98785.00;2070463;28;46140;-69
2023/03/14 02:47:04;;;;;;;;;0.00;0.00;;;;;13.46;69.37;98781.50;2069656;28;46783;-68
2023/03/14 02:48:10;;;;;;;;;0.50;0.50;;;;;13.46;69.58;98793.00;2070077;28;46616;-68
2023/03/14 02:49:14;;;;;;;;;0.75;0.50;;;;;13.46;69.68;98793.00;2070427;28;46510;-67
2023/03/14 02:50:20;;;;;;;;;0.25;0.25;;;;;13.45;69.69;98780.66;2070477;28;46744;-66
2023/03/14 02:51:21;;;;;;;;;0.00;0.00;;;;;13.46;69.74;98789.50;2070423;28;47190;-68
2023/03/14 02:52:21;;;;;;;;;2.50;0.00;;;;;13.45;70.04;98779.78;2070315;28;45951;-67
2023/03/14 02:53:26;;;;;;;;;0.00;0.00;;;;;13.45;69.91;98785.13;2062435;28;46332;-68
2023/03/14 02:54:26;;;;;;;;;0.75;0.00;;;;;13.46;69.83;98790.34;2062107;28;46968;-67
2023/03/14 02:55:27;;;;;;;;;0.00;0.00;;;;;13.47;70.06;98784.09;2070616;28;46795;-67
2023/03/14 02:56:27;;;;;;;;;2.00;0.67;;;;;13.46;69.87;98778.84;2070711;28;46633;-67
2023/03/14 02:57:27;;;;;;;;;0.00;0.00;;;;;13.45;70.53;98788.63;2070654;28;46052;-67
2023/03/14 02:58:29;;;;;;;;;0.00;0.00;;;;;13.46;70.53;98798.34;2062378;28;47169;-67
2023/03/14 02:59:30;;;;;;;;;0.00;0.00;;;;;13.46;70.52;98789.50;2065523;28;46304;-67
2023/03/14 03:00:30;;;;;;;;;0.00;0.00;;;;;13.45;70.68;98791.31;2063543;28;46496;-68
2023/03/14 03:01:31;;;;;;;;;0.00;0.00;;;;;13.46;70.93;98787.69;2070280;28;45961;-68
2023/03/14 03:02:31;;;;;;;;;0.00;0.00;;;;;13.48;71.03;98784.94;2088056;28;46418;-68
2023/03/14 03:03:32;;;;;;;;;0.00;0.00;;;;;13.48;71.17;98784.94;2088646;28;46289;-67
2023/03/14 03:04:32;;;;;;;;;1.75;0.00;;;;;13.48;71.07;98784.94;2088721;28;46816;-67
2023/03/14 03:05:33;;;;;;;;;0.00;0.00;;;;;13.48;71.15;98801.78;2088180;28;46643;-69
2023/03/14 03:06:33;;;;;;;;;0.00;0.00;;;;;13.47;71.15;98789.41;2088626;28;45675;-67
2023/03/14 03:07:34;;;;;;;;;0.00;0.00;;;;;13.47;71.29;98799.22;2106014;27;46275;-68
2023/03/14 03:08:34;;;;;;;;;0.00;0.00;;;;;13.46;71.33;98795.69;2109017;27;45032;-68
2023/03/14 03:09:34;;;;;;;;;0.00;0.00;;;;;13.46;71.28;98798.34;2106121;27;46424;-68
2023/03/14 03:10:35;;;;;;;;;1.00;0.00;;;;;13.47;71.18;98797.41;2104243;28;46322;-68
2023/03/14 03:11:35;;;;;;;;;0.00;0.00;;;;;13.48;71.16;98800.94;2103791;28;46267;-69
2023/03/14 03:12:35;;;;;;;;;0.00;0.00;;;;;13.47;71.45;98792.09;2097341;28;46200;-69
2023/03/14 03:13:36;;;;;;;;;0.00;0.00;;;;;13.47;71.51;98794.75;2105930;27;46213;-69
2023/03/14 03:14:37;;;;;;;;;1.33;0.00;;;;;13.49;71.49;98800.84;2096719;28;45834;-69
2023/03/14 03:15:37;;;;;;;;;0.25;0.25;;;;;13.50;71.07;98801.69;2095856;28;46551;-69
2023/03/14 03:16:38;;;;;;;;;0.00;0.00;;;;;13.51;71.57;98795.41;2104832;28;46295;-68
2023/03/14 03:17:38;;;;;;;;;0.00;0.00;;;;;13.50;71.40;98794.53;2114151;27;46304;-69
2023/03/14 03:18:38;;;;;;;;;0.00;0.00;;;;;13.51;71.20;98800.72;2113809;27;45354;-69
2023/03/14 03:19:39;;;;;;;;;0.00;0.00;;;;;13.49;71.22;98799.97;2113626;27;46644;-68
2023/03/14 03:20:39;;;;;;;;;0.00;0.00;;;;;13.49;71.27;98806.16;2114335;27;46338;-68
2023/03/14 03:21:42;;;;;;;;;0.00;0.00;;;;;13.46;71.54;98801.00;2113786;27;45603;-69
2023/03/14 03:22:43;;;;;;;;;0.00;0.00;;;;;13.46;71.51;98803.66;2114477;27;46175;-68
2023/03/14 03:23:43;;;;;;;;;0.00;0.00;;;;;13.46;71.56;98786.81;2113504;27;46860;-70
2023/03/14 03:24:44;;;;;;;;;0.00;0.00;;;;;13.45;71.49;98791.31;2114070;27;46648;-68
2023/03/14 03:25:49;;;;;;;;;0.00;0.00;;;;;13.45;71.82;98799.28;2114349;27;46535;-69
2023/03/14 03:26:49;;;;;;;;;0.00;0.00;;;;;13.45;72.23;98801.97;2113804;27;46986;-69
2023/03/14 03:27:50;;;;;;;;;0.00;0.00;;;;;13.45;72.20;98809.97;2096667;28;46058;-69
2023/03/14 03:28:51;;;;;;;;;0.00;0.00;;;;;13.44;71.95;98802.91;2096927;28;45559;-68
2023/03/14 03:29:52;;;;;;;;;0.00;0.00;;;;;13.45;71.91;98806.44;2113858;27;46379;-67
2023/03/14 03:30:52;;;;;;;;;0.00;0.00;;;;;13.44;71.46;98807.38;2100893;27;46476;-68
2023/03/14 03:31:53;;;;;;;;;0.00;0.00;;;;;13.44;71.90;98812.72;2113744;27;45491;-68
2023/03/14 03:32:53;;;;;;;;;0.00;0.00;;;;;13.42;72.21;98801.31;2113990;27;46175;-69
2023/03/14 03:33:53;;;;;;;;;1.33;0.33;;;;;13.42;72.47;98803.97;2105140;28;46531;-67
2023/03/14 03:34:54;;;;;;;;;0.00;0.00;;;;;13.41;72.22;98797.78;2096910;28;46574;-69
2023/03/14 03:35:54;;;;;;;;;0.00;0.00;;;;;13.41;72.55;98808.44;2096298;28;45949;-69
2023/03/14 03:36:57;;;;;;;;;0.00;0.00;;;;;13.42;72.68;98804.81;2096718;28;46079;-69
2023/03/14 03:37:58;;;;;;;;;0.00;0.00;;;;;13.41;72.78;98811.13;2105846;27;46356;-69
2023/03/14 03:38:58;;;;;;;;;0.00;0.00;;;;;13.40;72.36;98808.56;2105199;28;46410;-69
2023/03/14 03:39:59;;;;;;;;;1.00;0.00;;;;;13.39;72.75;98805.03;2104024;28;44969;-69
2023/03/14 03:41:03;;;;;;;;;1.00;0.00;;;;;13.40;72.86;98809.41;2109430;27;45805;-68
2023/03/14 03:42:03;;;;;;;;;0.50;0.50;;;;;13.41;72.70;98813.78;2114388;27;45965;-69
2023/03/14 03:43:04;;;;;;;;;0.00;0.00;;;;;13.42;72.95;98809.31;2110720;27;46852;-68
2023/03/14 03:44:05;;;;;;;;;0.00;0.00;;;;;13.43;72.49;98811.00;2107957;27;46648;-69
2023/03/14 03:45:06;;;;;;;;;0.00;0.00;;;;;13.42;72.24;98810.16;2114304;27;46189;-69
2023/03/14 03:46:07;;;;;;;;;0.25;0.00;;;;;13.41;72.92;98804.94;2113457;27;46640;-69
2023/03/14 03:47:07;;;;;;;;;0.00;0.00;;;;;13.41;72.77;98821.78;2108723;27;45620;-68
2023/03/14 03:48:08;;;;;;;;;1.00;0.00;;;;;13.41;73.10;98810.25;2104821;28;46596;-69
2023/03/14 03:49:08;;;;;;;;;0.00;0.00;;;;;13.41;72.87;98807.59;2105214;28;46547;-69
2023/03/14 03:50:09;;;;;;;;;0.00;0.00;;;;;13.42;72.74;98811.97;2113925;27;45813;-68
2023/03/14 03:51:14;;;;;;;;;0.00;0.00;;;;;13.44;72.68;98824.22;2105831;27;46301;-69
2023/03/14 03:52:15;;;;;;;;;0.00;0.00;;;;;13.43;72.68;98822.53;2104999;28;47359;-69
2023/03/14 03:53:15;;;;;;;;;0.00;0.00;;;;;13.44;72.56;98812.72;2105508;28;46487;-69
2023/03/14 03:54:15;;;;;;;;;0.00;0.00;;;;;13.42;72.24;98811.97;2103736;28;45057;-69
2023/03/14 03:55:16;;;;;;;;;0.00;0.00;;;;;13.40;72.60;98812.06;2105489;28;46101;-70
2023/03/14 03:56:16;;;;;;;;;0.00;0.00;;;;;13.40;73.08;98809.41;2103326;28;46878;-66
2023/03/14 03:57:17;;;;;;;;;0.00;0.00;;;;;13.40;73.11;98816.53;2101009;28;46399;-68
2023/03/14 03:58:17;;;;;;;;;0.00;0.00;;;;;13.40;73.02;98816.53;2100342;28;46236;-67
2023/03/14 03:59:18;;;;;;;;;0.00;0.00;;;;;13.40;72.85;98811.22;2105183;28;46075;-68
2023/03/14 04:00:18;;;;;;;;;0.00;0.00;;;;;13.41;72.76;98819.09;2110232;27;45807;-68
2023/03/14 04:01:18;;;;;;;;;0.00;0.00;;;;;13.42;73.07;98818.16;2110827;27;46297;-68
2023/03/14 04:02:18;;;;;;;;;1.00;0.00;;;;;13.43;73.05;98821.66;2112508;27;46849;-68
2023/03/14 04:03:19;;;;;;;;;0.00;0.00;;;;;13.43;72.88;98817.19;2108790;27;46580;-68
2023/03/14 04:04:19;;;;;;;;;0.00;0.00;;;;;13.44;72.81;98826.03;2113157;27;46203;-69
2023/03/14 04:05:19;;;;;;;;;0.00;0.00;;;;;13.45;72.94;98830.41;2110301;27;46211;-68
2023/03/14 04:06:20;;;;;;;;;0.00;0.00;;;;;13.44;72.30;98828.72;2113528;27;45531;-68
2023/03/14 04:07:20;;;;;;;;;0.00;0.00;;;;;13.43;72.77;98824.34;2097446;28;46598;-68
2023/03/14 04:08:20;;;;;;;;;0.00;0.00;;;;;13.43;72.89;98827.00;2108231;27;46346;-69
2023/03/14 04:09:21;;;;;;;;;0.00;0.00;;;;;13.43;72.68;98833.19;2110803;27;46651;-67
2023/03/14 04:10:21;;;;;;;;;0.00;0.00;;;;;13.42;72.42;98831.47;2112090;27;46336;-68
2023/03/14 04:11:21;;;;;;;;;0.00;0.00;;;;;13.41;72.59;98835.09;2099452;28;46648;-68
2023/03/14 04:12:22;;;;;;;;;0.00;0.00;;;;;13.40;72.61;98832.53;2097820;28;45865;-68
2023/03/14 04:13:22;;;;;;;;;0.00;0.00;;;;;13.38;72.57;98831.78;2107021;27;46309;-68
2023/03/14 04:14:23;;;;;;;;;0.00;0.00;;;;;13.36;72.80;98831.03;2107025;27;46583;-69
2023/03/14 04:15:23;;;;;;;;;0.00;0.00;;;;;13.35;72.59;98837.31;2110261;27;46436;-68
2023/03/14 04:16:25;;;;;;;;;0.00;0.00;;;;;13.33;72.72;98837.38;2106158;27;46789;-69
2023/03/14 04:17:25;;;;;;;;;0.00;0.00;;;;;13.32;72.98;98832.16;2113800;27;46169;-69
2023/03/14 04:18:27;;;;;;;;;0.00;0.00;;;;;13.31;72.91;98830.44;2113758;27;46616;-68
2023/03/14 04:19:27;;;;;;;;;0.75;0.00;;;;;13.30;73.13;98836.72;2098456;28;46965;-68
2023/03/14 04:20:27;;;;;;;;;0.67;0.00;;;;;13.29;73.18;98838.53;2095060;28;46554;-69
2023/03/14 04:21:28;;;;;;;;;0.00;0.00;;;;;13.29;72.96;98832.34;2104548;28;46433;-69
2023/03/14 04:22:28;;;;;;;;;0.00;0.00;;;;;13.31;73.45;98846.41;2109326;27;46063;-69
2023/03/14 04:23:29;;;;;;;;;0.00;0.00;;;;;13.31;73.67;98841.09;2110268;27;47406;-68
2023/03/14 04:24:30;;;;;;;;;0.00;0.00;;;;;13.31;73.25;98847.28;2106224;27;46594;-69
2023/03/14 04:25:30;;;;;;;;;0.00;0.00;;;;;13.31;73.53;98843.75;2111501;27;46411;-70
2023/03/14 04:26:30;;;;;;;;;0.00;0.00;;;;;13.32;73.24;98850.78;2109074;27;46078;-68
2023/03/14 04:27:31;;;;;;;;;0.00;0.00;;;;;13.32;73.84;98850.78;2107630;27;46658;-69
2023/03/14 04:28:32;;;;;;;;;0.00;0.00;;;;;13.35;73.70;98858.63;2101898;27;46342;-69
2023/03/14 04:29:32;;;;;;;;;0.00;0.00;;;;;13.35;73.63;98854.16;2105465;27;45563;-69
2023/03/14 04:30:32;;;;;;;;;0.00;0.00;;;;;13.35;73.55;98854.16;2102804;28;46831;-68
2023/03/14 04:31:33;;;;;;;;;0.00;0.00;;;;;13.35;73.42;98863.94;2102260;27;45271;-69
2023/03/14 04:32:33;;;;;;;;;0.00;0.00;;;;;13.32;73.84;98861.44;2105311;28;45511;-69
2023/03/14 04:33:33;;;;;;;;;0.00;0.00;;;;;13.30;74.23;98858.88;2105440;27;46244;-68
2023/03/14 04:34:34;;;;;;;;;0.00;0.00;;;;;13.31;74.20;98870.41;2095265;28;45463;-68
2023/03/14 04:35:34;;;;;;;;;0.00;0.00;;;;;13.30;74.05;98874.00;2095401;28;46193;-69
2023/03/14 04:36:35;;;;;;;;;0.00;0.00;;;;;13.29;73.54;98875.81;2093929;28;46510;-69
2023/03/14 04:37:35;;;;;;;;;0.00;0.00;;;;;13.29;74.31;98889.16;2105749;27;46682;-69
2023/03/14 04:38:36;;;;;;;;;0.00;0.00;;;;;13.29;74.52;98882.97;2105444;27;46175;-68
2023/03/14 04:39:36;;;;;;;;;0.50;0.00;;;;;13.29;74.15;98875.81;2108665;27;45922;-69
2023/03/14 04:40:40;;;;;;;;;0.00;0.00;;;;;13.31;73.85;98881.06;2107169;27;46230;-69
2023/03/14 04:41:41;;;;;;;;;0.00;0.00;;;;;13.28;74.14;98882.09;2112182;27;46545;-70
2023/03/14 04:42:41;;;;;;;;;0.00;0.00;;;;;13.28;74.43;98887.44;2112892;27;46322;-68
2023/03/14 04:43:41;;;;;;;;;0.00;0.00;;;;;13.29;74.59;98886.47;2105561;27;46433;-68
2023/03/14 04:44:43;;;;;;;;;0.00;0.00;;;;;13.28;74.20;98889.25;2110641;27;46270;-68
2023/03/14 04:45:43;;;;;;;;;0.00;0.00;;;;;13.28;73.97;98886.56;2112798;27;46564;-69
2023/03/14 04:46:43;;;;;;;;;0.00;0.00;;;;;13.25;74.22;98888.50;2110873;27;45760;-69
2023/03/14 04:47:44;;;;;;;;;0.00;0.00;;;;;13.23;74.20;98885.06;2109853;27;46707;-69
2023/03/14 04:48:44;;;;;;;;;0.00;0.00;;;;;13.22;74.62;98895.81;2104861;28;45526;-67
2023/03/14 04:49:44;;;;;;;;;0.00;0.00;;;;;13.19;74.44;98896.84;2104376;28;45494;-70
2023/03/14 04:50:47;;;;;;;;;0.00;0.00;;;;;13.15;74.71;98913.94;2113350;27;44998;-70